Time;durP1;ratioP1;P1;durP2;ratioP2;P2;SDS_P1;SDS_P2;PMS_P1;PMS_P2;Temp;Humidity;BMP_temperature;BMP_pressure;BME280_temperature;BME280_humidity;BME280_pressure;Samples;Min_cycle;Max_cycle;Signal;HPM_P1;HPM_P2
2023/08/12 00:01:07;;;;;;;29.08;3.97;;;;;;;;;;5055339;28;20111;-36
2023/08/12 00:03:34;;;;;;;35.25;4.35;;;;;;;;;;5055907;28;20028;-35
2023/08/12 00:06:01;;;;;;;30.35;3.65;;;;;;;;;;5054999;28;20036;-36
2023/08/12 00:08:30;;;;;;;29.40;4.15;;;;;;;;;;5050014;28;20055;-36
2023/08/12 00:10:57;;;;;;;29.50;3.72;;;;;;;;;;5050620;28;20048;-35
2023/08/12 00:13:24;;;;;;;29.35;3.45;;;;;;;;;;5054127;28;20028;-35
2023/08/12 00:15:53;;;;;;;20.45;3.35;;;;;;;;;;5055943;28;20422;-36
2023/08/12 00:18:20;;;;;;;26.63;4.18;;;;;;;;;;5052968;28;20036;-35
2023/08/12 00:20:47;;;;;;;21.23;3.65;;;;;;;;;;5054738;28;20106;-35
2023/08/12 00:23:14;;;;;;;26.75;4.00;;;;;;;;;;5065409;28;20037;-36
2023/08/12 00:25:41;;;;;;;24.05;3.13;;;;;;;;;;5055110;28;20510;-36
2023/08/12 00:28:08;;;;;;;20.05;3.50;;;;;;;;;;5052155;28;20025;-35
2023/08/12 00:30:35;;;;;;;22.05;3.47;;;;;;;;;;5049547;28;20528;-35
2023/08/12 00:33:02;;;;;;;24.63;3.03;;;;;;;;;;5052187;28;20029;-36
2023/08/12 00:35:29;;;;;;;16.75;3.35;;;;;;;;;;5050916;28;20039;-36
2023/08/12 00:37:55;;;;;;;27.08;3.40;;;;;;;;;;5050916;28;20046;-35
2023/08/12 00:40:24;;;;;;;16.52;2.88;;;;;;;;;;5051971;28;20020;-36
2023/08/12 00:42:51;;;;;;;17.45;3.40;;;;;;;;;;5052109;28;20044;-36
2023/08/12 00:45:18;;;;;;;24.10;3.35;;;;;;;;;;5052136;28;20479;-36
2023/08/12 00:47:45;;;;;;;19.73;3.05;;;;;;;;;;5051939;28;20020;-35
2023/08/12 00:50:13;;;;;;;19.80;2.95;;;;;;;;;;5051674;28;20021;-36
2023/08/12 00:52:41;;;;;;;14.57;2.67;;;;;;;;;;5051332;28;20483;-36
2023/08/12 00:55:08;;;;;;;13.15;2.40;;;;;;;;;;5046493;28;20494;-36
2023/08/12 00:57:35;;;;;;;18.10;2.75;;;;;;;;;;5047080;28;20050;-35
2023/08/12 01:00:03;;;;;;;14.85;3.28;;;;;;;;;;5052108;28;20103;-35
2023/08/12 01:02:30;;;;;;;14.05;2.85;;;;;;;;;;5048763;28;20032;-35
2023/08/12 01:04:58;;;;;;;17.13;3.03;;;;;;;;;;5032979;28;20022;-36
2023/08/12 01:07:25;;;;;;;18.38;3.10;;;;;;;;;;5038621;28;20127;-36
2023/08/12 01:09:52;;;;;;;21.88;2.85;;;;;;;;;;5045803;28;20032;-36
2023/08/12 01:12:33;;;;;;;14.68;2.67;;;;;;;;;;5051963;28;20457;-36
2023/08/12 01:15:03;;;;;;;13.68;2.97;;;;;;;;;;5050777;28;20540;-36
2023/08/12 01:17:30;;;;;;;20.20;3.42;;;;;;;;;;5052044;28;20021;-35
2023/08/12 01:19:57;;;;;;;16.95;3.80;;;;;;;;;;5052155;28;20044;-35
2023/08/12 01:22:26;;;;;;;18.20;3.60;;;;;;;;;;5052029;28;20126;-36
2023/08/12 01:24:54;;;;;;;18.35;3.58;;;;;;;;;;5051726;28;20053;-35
2023/08/12 01:27:21;;;;;;;16.55;3.65;;;;;;;;;;5050955;28;20044;-36
2023/08/12 01:29:51;;;;;;;11.70;3.15;;;;;;;;;;5049703;28;20545;-35
2023/08/12 01:32:33;;;;;;;16.67;3.08;;;;;;;;;;5051181;28;20056;-35
2023/08/12 01:35:18;;;;;;;17.83;3.58;;;;;;;;;;5051568;28;20585;-35
2023/08/12 01:37:46;;;;;;;17.95;3.45;;;;;;;;;;5048107;28;20025;-35
2023/08/12 01:40:15;;;;;;;22.50;3.78;;;;;;;;;;5051139;28;20139;-36
2023/08/12 01:42:42;;;;;;;16.95;3.20;;;;;;;;;;5050847;28;20493;-35
2023/08/12 01:45:09;;;;;;;25.88;3.78;;;;;;;;;;5049049;28;20034;-35
2023/08/12 01:47:36;;;;;;;20.90;3.70;;;;;;;;;;5049436;28;20063;-36
2023/08/12 01:50:03;;;;;;;16.17;3.40;;;;;;;;;;5050575;28;20155;-36
2023/08/12 01:52:30;;;;;;;15.45;3.53;;;;;;;;;;5034205;28;20076;-36
2023/08/12 01:54:57;;;;;;;15.45;3.72;;;;;;;;;;5030692;28;20415;-36
2023/08/12 01:57:24;;;;;;;15.75;3.78;;;;;;;;;;5044089;28;20032;-35
2023/08/12 01:59:52;;;;;;;12.90;3.60;;;;;;;;;;5044435;28;20037;-35
2023/08/12 02:02:19;;;;;;;14.82;3.78;;;;;;;;;;5041588;28;20063;-35
2023/08/12 02:04:47;;;;;;;15.82;3.70;;;;;;;;;;5050210;28;20036;-36
2023/08/12 02:07:14;;;;;;;14.55;3.05;;;;;;;;;;5050413;28;20075;-35
2023/08/12 02:09:41;;;;;;;13.20;2.65;;;;;;;;;;5050555;28;20025;-35
2023/08/12 02:12:08;;;;;;;19.88;3.45;;;;;;;;;;5048792;28;20033;-36
2023/08/12 02:14:36;;;;;;;12.25;3.15;;;;;;;;;;5046064;28;20033;-36
2023/08/12 02:17:06;;;;;;;14.60;2.97;;;;;;;;;;5045780;28;20061;-36
2023/08/12 02:19:34;;;;;;;14.65;2.83;;;;;;;;;;5049864;28;20029;-35
2023/08/12 02:22:03;;;;;;;17.75;3.60;;;;;;;;;;5050705;28;20025;-35
2023/08/12 02:24:30;;;;;;;16.40;3.40;;;;;;;;;;5048917;28;20108;-35
2023/08/12 02:26:57;;;;;;;15.82;2.88;;;;;;;;;;5049976;28;20025;-35
2023/08/12 02:29:24;;;;;;;15.10;3.00;;;;;;;;;;5049920;28;20124;-36
2023/08/12 02:31:51;;;;;;;16.92;3.17;;;;;;;;;;5045966;28;20510;-35
2023/08/12 02:34:18;;;;;;;11.70;2.85;;;;;;;;;;5043614;28;20037;-36
2023/08/12 02:36:45;;;;;;;14.65;2.90;;;;;;;;;;5049439;28;20107;-36
2023/08/12 02:39:13;;;;;;;14.68;2.97;;;;;;;;;;5050746;28;20025;-36
2023/08/12 02:41:40;;;;;;;13.38;3.08;;;;;;;;;;5050819;28;20025;-36
2023/08/12 02:44:07;;;;;;;12.82;2.80;;;;;;;;;;5050727;28;20120;-36
2023/08/12 02:46:33;;;;;;;12.98;2.92;;;;;;;;;;5050595;28;20766;-36
2023/08/12 02:49:00;;;;;;;12.68;2.53;;;;;;;;;;5050933;28;20105;-36
2023/08/12 02:51:27;;;;;;;8.32;2.50;;;;;;;;;;5054779;28;20033;-36
2023/08/12 02:53:54;;;;;;;17.55;2.80;;;;;;;;;;5054479;28;20471;-36
2023/08/12 02:56:21;;;;;;;13.38;2.78;;;;;;;;;;5053675;28;20075;-36
2023/08/12 02:58:48;;;;;;;10.48;2.78;;;;;;;;;;5055341;28;20108;-37
2023/08/12 03:01:16;;;;;;;15.80;3.00;;;;;;;;;;5054040;28;20033;-37
2023/08/12 03:03:43;;;;;;;12.02;2.60;;;;;;;;;;5053486;28;20063;-37
2023/08/12 03:06:10;;;;;;;17.38;3.15;;;;;;;;;;5054341;28;20025;-37
2023/08/12 03:08:36;;;;;;;12.73;2.60;;;;;;;;;;5054989;28;20104;-37
2023/08/12 03:11:04;;;;;;;12.13;3.00;;;;;;;;;;5048294;28;20430;-37
2023/08/12 03:13:31;;;;;;;12.07;2.70;;;;;;;;;;5043799;28;20106;-36
2023/08/12 03:15:58;;;;;;;16.48;2.95;;;;;;;;;;5043463;28;20021;-37
2023/08/12 03:18:25;;;;;;;14.88;2.67;;;;;;;;;;5045086;28;20139;-37
2023/08/12 03:20:52;;;;;;;12.55;2.50;;;;;;;;;;5043955;28;20113;-37
2023/08/12 03:23:19;;;;;;;14.35;2.92;;;;;;;;;;5045674;28;20032;-36
2023/08/12 03:25:48;;;;;;;12.18;2.20;;;;;;;;;;5043799;28;20098;-36
2023/08/12 03:28:15;;;;;;;7.65;2.35;;;;;;;;;;5045662;28;20074;-37
2023/08/12 03:30:42;;;;;;;15.80;3.35;;;;;;;;;;5043010;28;20614;-39
2023/08/12 03:33:09;;;;;;;11.05;2.40;;;;;;;;;;5051669;28;20049;-37
2023/08/12 03:35:36;;;;;;;14.27;2.30;;;;;;;;;;5054514;28;20041;-37
2023/08/12 03:38:03;;;;;;;13.20;2.53;;;;;;;;;;5054413;28;20387;-37
2023/08/12 03:40:30;;;;;;;10.82;2.22;;;;;;;;;;5054459;28;20029;-37
2023/08/12 03:42:57;;;;;;;11.70;2.45;;;;;;;;;;5054549;28;20048;-37
2023/08/12 03:45:24;;;;;;;11.27;2.58;;;;;;;;;;5054179;28;20040;-37
2023/08/12 03:47:51;;;;;;;10.30;2.17;;;;;;;;;;5054384;28;20036;-37
2023/08/12 03:50:18;;;;;;;12.98;2.58;;;;;;;;;;5054197;28;20044;-37
2023/08/12 03:52:45;;;;;;;11.23;2.47;;;;;;;;;;5054298;28;20056;-37
2023/08/12 03:55:12;;;;;;;10.25;2.30;;;;;;;;;;5054297;28;20029;-36
2023/08/12 03:57:39;;;;;;;10.25;2.42;;;;;;;;;;5054139;28;20037;-37
2023/08/12 04:00:08;;;;;;;9.65;2.17;;;;;;;;;;5054190;28;20522;-37
2023/08/12 04:02:36;;;;;;;9.15;2.25;;;;;;;;;;5053039;28;20041;-36
2023/08/12 04:05:03;;;;;;;14.15;2.60;;;;;;;;;;5052777;28;20029;-37
2023/08/12 04:07:30;;;;;;;12.15;2.60;;;;;;;;;;5053910;28;20037;-36
2023/08/12 04:09:56;;;;;;;13.35;2.10;;;;;;;;;;5054064;28;20029;-36
2023/08/12 04:12:23;;;;;;;7.70;2.08;;;;;;;;;;5053920;28;20036;-36
2023/08/12 04:14:51;;;;;;;10.40;1.90;;;;;;;;;;5053704;28;20436;-36
2023/08/12 04:17:18;;;;;;;7.63;1.88;;;;;;;;;;5053723;28;20031;-36
2023/08/12 04:19:45;;;;;;;7.70;1.90;;;;;;;;;;5053801;28;20033;-36
2023/08/12 04:22:12;;;;;;;9.68;1.90;;;;;;;;;;5053736;28;20571;-37
2023/08/12 04:24:39;;;;;;;10.65;2.35;;;;;;;;;;5053517;28;20498;-36
2023/08/12 04:27:06;;;;;;;10.73;2.05;;;;;;;;;;5053671;28;20479;-37
2023/08/12 04:29:33;;;;;;;8.88;2.10;;;;;;;;;;5053553;28;20029;-37
2023/08/12 04:32:00;;;;;;;8.48;1.77;;;;;;;;;;5053490;28;20045;-37
2023/08/12 04:34:26;;;;;;;7.43;1.80;;;;;;;;;;5053548;28;20035;-37
2023/08/12 04:36:54;;;;;;;7.20;2.10;;;;;;;;;;5053279;28;20032;-37
2023/08/12 04:39:22;;;;;;;8.00;1.67;;;;;;;;;;5053571;28;20029;-37
2023/08/12 04:41:49;;;;;;;5.80;1.67;;;;;;;;;;5053447;28;20041;-37
2023/08/12 04:44:16;;;;;;;7.53;1.65;;;;;;;;;;5053459;28;20033;-37
2023/08/12 04:46:43;;;;;;;5.50;1.50;;;;;;;;;;5053204;28;20120;-36
2023/08/12 04:49:10;;;;;;;5.03;1.58;;;;;;;;;;5053327;28;20032;-37
2023/08/12 04:51:37;;;;;;;10.77;1.80;;;;;;;;;;5053166;28;20399;-36
2023/08/12 04:54:04;;;;;;;11.68;1.73;;;;;;;;;;5053228;28;20036;-37
2023/08/12 04:56:31;;;;;;;7.80;1.70;;;;;;;;;;5053058;28;20372;-36
2023/08/12 04:58:58;;;;;;;7.28;1.90;;;;;;;;;;5053131;28;20047;-36
2023/08/12 05:01:25;;;;;;;6.82;1.80;;;;;;;;;;5053125;28;20032;-36
2023/08/12 05:03:52;;;;;;;7.88;1.50;;;;;;;;;;5051518;28;20060;-36
2023/08/12 05:06:19;;;;;;;5.85;1.58;;;;;;;;;;5052912;28;20039;-36
2023/08/12 05:08:46;;;;;;;6.40;1.20;;;;;;;;;;5052959;28;20676;-36
2023/08/12 05:11:13;;;;;;;8.10;1.60;;;;;;;;;;5052722;28;20037;-36
2023/08/12 05:13:40;;;;;;;5.20;1.70;;;;;;;;;;5052770;28;20390;-36
2023/08/12 05:16:07;;;;;;;3.65;1.30;;;;;;;;;;5052752;28;20033;-36
2023/08/12 05:18:34;;;;;;;5.47;1.70;;;;;;;;;;5052780;28;20035;-36
2023/08/12 05:21:01;;;;;;;6.13;1.52;;;;;;;;;;5052722;28;20040;-37
2023/08/12 05:23:28;;;;;;;11.55;1.98;;;;;;;;;;5052677;28;20025;-37
2023/08/12 05:25:55;;;;;;;7.47;1.50;;;;;;;;;;5052390;28;20102;-36
2023/08/12 05:28:22;;;;;;;6.10;1.50;;;;;;;;;;5052630;28;20036;-37
2023/08/12 05:30:49;;;;;;;7.90;1.35;;;;;;;;;;5052591;28;20074;-37
2023/08/12 05:33:16;;;;;;;4.82;1.30;;;;;;;;;;5052459;28;20041;-36
2023/08/12 05:35:43;;;;;;;4.70;1.33;;;;;;;;;;5052408;28;20025;-36
2023/08/12 05:38:10;;;;;;;3.70;1.17;;;;;;;;;;5052359;28;20032;-37
2023/08/12 05:40:37;;;;;;;5.00;1.33;;;;;;;;;;5052302;28;20048;-36
2023/08/12 05:43:04;;;;;;;5.68;1.20;;;;;;;;;;5052342;28;20044;-36
2023/08/12 05:45:31;;;;;;;4.47;1.42;;;;;;;;;;5052191;28;20483;-37
2023/08/12 05:47:58;;;;;;;3.60;1.13;;;;;;;;;;5052171;28;20502;-36
2023/08/12 05:50:25;;;;;;;5.70;1.25;;;;;;;;;;5050911;28;20506;-37
2023/08/12 05:52:52;;;;;;;4.43;1.30;;;;;;;;;;5052064;28;20043;-36
2023/08/12 05:55:19;;;;;;;8.35;1.50;;;;;;;;;;5052062;28;20029;-36
2023/08/12 05:57:46;;;;;;;5.32;1.30;;;;;;;;;;5052017;28;20029;-37
2023/08/12 06:00:13;;;;;;;5.10;1.38;;;;;;;;;;5051889;28;20479;-37
2023/08/12 06:02:40;;;;;;;5.20;1.20;;;;;;;;;;5050438;28;20029;-37
2023/08/12 06:05:08;;;;;;;4.72;1.30;;;;;;;;;;5051927;28;20056;-37
2023/08/12 06:07:35;;;;;;;4.35;1.30;;;;;;;;;;5051602;28;20090;-37
2023/08/12 06:10:03;;;;;;;2.90;1.13;;;;;;;;;;5051783;28;20037;-37
2023/08/12 06:12:30;;;;;;;3.78;1.10;;;;;;;;;;5051690;28;20036;-37
2023/08/12 06:14:57;;;;;;;2.97;0.98;;;;;;;;;;5051740;28;20056;-37
2023/08/12 06:17:24;;;;;;;4.65;1.20;;;;;;;;;;5051463;28;20044;-37
2023/08/12 06:19:51;;;;;;;7.03;1.20;;;;;;;;;;5050388;28;20025;-37
2023/08/12 06:22:18;;;;;;;4.57;1.15;;;;;;;;;;5051690;28;20399;-37
2023/08/12 06:24:45;;;;;;;3.28;1.10;;;;;;;;;;5050952;28;20049;-37
2023/08/12 06:27:12;;;;;;;3.38;1.00;;;;;;;;;;5051489;28;20028;-36
2023/08/12 06:29:39;;;;;;;3.13;1.00;;;;;;;;;;5051591;28;20368;-36
2023/08/12 06:32:06;;;;;;;3.33;1.13;;;;;;;;;;5051612;28;20083;-37
2023/08/12 06:34:33;;;;;;;4.38;1.10;;;;;;;;;;5051557;28;20483;-37
2023/08/12 06:37:00;;;;;;;4.57;0.98;;;;;;;;;;5050131;28;20048;-36
2023/08/12 06:39:27;;;;;;;3.58;1.10;;;;;;;;;;5051463;28;20025;-37
2023/08/12 06:41:55;;;;;;;4.20;1.17;;;;;;;;;;5051459;28;20033;-37
2023/08/12 06:44:22;;;;;;;2.17;0.80;;;;;;;;;;5051482;28;20475;-37
2023/08/12 06:46:49;;;;;;;4.93;1.02;;;;;;;;;;5051339;28;20063;-37
2023/08/12 06:49:16;;;;;;;3.63;1.17;;;;;;;;;;5051351;28;20108;-37
2023/08/12 06:51:43;;;;;;;3.53;1.00;;;;;;;;;;5051284;28;20029;-36
2023/08/12 06:54:10;;;;;;;2.20;0.90;;;;;;;;;;5049662;28;20029;-37
2023/08/12 06:56:37;;;;;;;7.22;1.45;;;;;;;;;;5051306;28;20021;-37
2023/08/12 06:59:04;;;;;;;3.40;0.90;;;;;;;;;;5051194;28;20021;-37
2023/08/12 07:01:31;;;;;;;3.63;0.70;;;;;;;;;;5051224;28;20029;-37
2023/08/12 07:03:58;;;;;;;5.70;1.00;;;;;;;;;;5051182;28;20068;-37
2023/08/12 07:06:25;;;;;;;2.60;0.80;;;;;;;;;;5051083;28;20029;-37
2023/08/12 07:08:52;;;;;;;3.72;1.08;;;;;;;;;;5051203;28;20368;-37
2023/08/12 07:11:19;;;;;;;3.08;0.80;;;;;;;;;;5051191;28;20090;-37
2023/08/12 07:13:46;;;;;;;3.42;0.98;;;;;;;;;;5051120;28;20070;-37
2023/08/12 07:16:13;;;;;;;2.28;0.73;;;;;;;;;;5051092;28;20021;-37
2023/08/12 07:18:40;;;;;;;2.03;0.95;;;;;;;;;;5051078;28;20040;-37
2023/08/12 07:21:07;;;;;;;2.80;1.00;;;;;;;;;;5051203;28;20486;-37
2023/08/12 07:23:35;;;;;;;3.08;1.05;;;;;;;;;;5051141;28;20032;-37
2023/08/12 07:26:02;;;;;;;2.15;0.65;;;;;;;;;;5050788;28;20040;-37
2023/08/12 07:28:29;;;;;;;3.65;0.90;;;;;;;;;;5051109;28;20032;-37
2023/08/12 07:30:56;;;;;;;2.05;0.70;;;;;;;;;;5050887;28;20479;-37
2023/08/12 07:33:23;;;;;;;2.22;0.63;;;;;;;;;;5051015;28;20033;-37
2023/08/12 07:35:50;;;;;;;3.25;0.93;;;;;;;;;;5050918;28;20037;-37
2023/08/12 07:38:17;;;;;;;4.32;0.93;;;;;;;;;;5054614;28;20033;-37
2023/08/12 07:40:44;;;;;;;3.42;0.80;;;;;;;;;;5054603;28;20048;-37
2023/08/12 07:43:11;;;;;;;4.90;0.90;;;;;;;;;;5054638;28;20036;-36
2023/08/12 07:45:38;;;;;;;1.75;0.70;;;;;;;;;;5054513;28;20078;-37
2023/08/12 07:48:05;;;;;;;5.13;0.80;;;;;;;;;;5054488;28;20025;-37
2023/08/12 07:50:32;;;;;;;3.28;0.82;;;;;;;;;;5054442;28;20032;-37
2023/08/12 07:52:59;;;;;;;2.28;0.90;;;;;;;;;;5054286;28;20041;-36
2023/08/12 07:55:29;;;;;;;2.28;0.73;;;;;;;;;;5054346;28;20033;-36
2023/08/12 07:57:56;;;;;;;2.60;0.88;;;;;;;;;;5054030;28;20071;-36
2023/08/12 08:00:23;;;;;;;1.83;0.60;;;;;;;;;;5054296;28;20021;-37
2023/08/12 08:02:50;;;;;;;4.15;0.90;;;;;;;;;;5054283;28;20032;-37
2023/08/12 08:05:20;;;;;;;1.27;0.63;;;;;;;;;;5054160;28;20025;-36
2023/08/12 08:07:48;;;;;;;2.42;0.93;;;;;;;;;;5054038;28;20036;-37
2023/08/12 08:10:15;;;;;;;2.70;0.70;;;;;;;;;;5054162;28;20032;-37
2023/08/12 08:12:41;;;;;;;3.05;0.75;;;;;;;;;;5052702;28;20044;-37
2023/08/12 08:15:09;;;;;;;2.08;0.82;;;;;;;;;;5053009;28;20518;-37
2023/08/12 08:17:36;;;;;;;2.28;0.60;;;;;;;;;;5052914;28;20033;-36
2023/08/12 08:20:05;;;;;;;1.63;0.70;;;;;;;;;;5053851;28;20036;-36
2023/08/12 08:22:32;;;;;;;2.22;0.60;;;;;;;;;;5053719;28;20082;-37
2023/08/12 08:24:59;;;;;;;1.55;0.57;;;;;;;;;;5053713;28;20078;-37
2023/08/12 08:27:26;;;;;;;1.45;0.65;;;;;;;;;;5053796;28;20487;-36
2023/08/12 08:29:53;;;;;;;3.05;0.70;;;;;;;;;;5053714;28;20033;-37
2023/08/12 08:32:20;;;;;;;2.72;0.70;;;;;;;;;;5053687;28;20143;-36
2023/08/12 08:34:47;;;;;;;1.35;0.50;;;;;;;;;;5053741;28;20115;-36
2023/08/12 08:37:14;;;;;;;0.65;0.45;;;;;;;;;;5053494;28;20033;-36
2023/08/12 08:39:41;;;;;;;1.85;0.55;;;;;;;;;;5053570;28;20037;-36
2023/08/12 08:42:11;;;;;;;1.52;0.60;;;;;;;;;;5053595;28;20040;-36
2023/08/12 08:44:44;;;;;;;2.60;0.60;;;;;;;;;;5053453;28;20034;-36
2023/08/12 08:47:12;;;;;;;1.85;0.75;;;;;;;;;;5052852;28;20064;-36
2023/08/12 08:49:39;;;;;;;1.75;0.70;;;;;;;;;;5053329;28;20040;-36
2023/08/12 08:52:06;;;;;;;1.90;0.60;;;;;;;;;;5053304;28;20383;-36
2023/08/12 08:54:34;;;;;;;2.85;0.50;;;;;;;;;;5053322;28;20033;-36
2023/08/12 08:57:01;;;;;;;2.85;0.60;;;;;;;;;;5053153;28;20021;-36
2023/08/12 08:59:28;;;;;;;2.05;0.70;;;;;;;;;;5053112;28;20048;-36
2023/08/12 09:01:55;;;;;;;0.70;0.47;;;;;;;;;;5053046;28;20037;-36
2023/08/12 09:04:23;;;;;;;1.35;0.60;;;;;;;;;;5053141;28;20036;-37
2023/08/12 09:06:51;;;;;;;1.67;0.50;;;;;;;;;;5052951;28;20479;-37
2023/08/12 09:09:20;;;;;;;2.00;0.57;;;;;;;;;;5053038;28;20083;-37
2023/08/12 09:11:48;;;;;;;0.77;0.40;;;;;;;;;;5052965;28;20033;-37
2023/08/12 09:14:15;;;;;;;2.58;0.70;;;;;;;;;;5052781;28;20025;-37
2023/08/12 09:16:42;;;;;;;2.05;0.43;;;;;;;;;;5052738;28;20398;-37
2023/08/12 09:19:09;;;;;;;1.75;0.60;;;;;;;;;;5052752;28;20033;-37
2023/08/12 09:21:36;;;;;;;1.13;0.50;;;;;;;;;;5052777;28;20037;-37
2023/08/12 09:24:06;;;;;;;1.42;0.60;;;;;;;;;;5052667;28;20044;-37
2023/08/12 09:26:33;;;;;;;0.73;0.30;;;;;;;;;;5052332;28;20128;-37
2023/08/12 09:29:00;;;;;;;1.13;0.57;;;;;;;;;;5084622;28;20032;-37
2023/08/12 09:31:28;;;;;;;1.92;0.60;;;;;;;;;;5052544;28;20134;-37
2023/08/12 09:33:59;;;;;;;1.00;0.50;;;;;;;;;;5052502;28;20028;-37
2023/08/12 09:36:30;;;;;;;2.05;0.55;;;;;;;;;;5052411;28;20036;-37
2023/08/12 09:39:00;;;;;;;1.05;0.50;;;;;;;;;;5052276;28;20029;-37
2023/08/12 09:41:30;;;;;;;1.30;0.60;;;;;;;;;;5052361;28;20083;-37
2023/08/12 09:43:57;;;;;;;1.13;0.50;;;;;;;;;;5052301;28;20025;-37
2023/08/12 09:46:24;;;;;;;4.32;0.60;;;;;;;;;;5052187;28;20021;-36
2023/08/12 09:48:55;;;;;;;1.90;0.40;;;;;;;;;;5052226;28;20041;-36
2023/08/12 09:51:22;;;;;;;1.90;0.50;;;;;;;;;;5052087;28;20088;-37
2023/08/12 09:53:49;;;;;;;1.10;0.40;;;;;;;;;;5052239;28;20510;-37
2023/08/12 09:56:19;;;;;;;1.08;0.57;;;;;;;;;;5052113;28;20036;-37
2023/08/12 09:58:49;;;;;;;1.90;0.70;;;;;;;;;;5051398;28;20567;-36
2023/08/12 10:01:22;;;;;;;1.48;0.50;;;;;;;;;;5051863;28;20071;-37
2023/08/12 10:03:51;;;;;;;5.20;0.50;;;;;;;;;;5051977;28;20115;-37
2023/08/12 10:06:18;;;;;;;1.67;0.40;;;;;;;;;;5050481;28;20056;-38
2023/08/12 10:08:49;;;;;;;1.60;0.50;;;;;;;;;;5051944;28;20054;-37
2023/08/12 10:11:16;;;;;;;0.98;0.43;;;;;;;;;;5051844;28;20021;-37
2023/08/12 10:13:43;;;;;;;2.60;0.43;;;;;;;;;;5051863;28;20029;-37
2023/08/12 10:16:12;;;;;;;1.63;0.50;;;;;;;;;;5051815;28;20032;-37
2023/08/12 10:18:40;;;;;;;0.65;0.40;;;;;;;;;;5051709;28;20041;-37
2023/08/12 10:21:13;;;;;;;1.60;0.55;;;;;;;;;;5051705;28;20025;-37
2023/08/12 10:23:42;;;;;;;1.83;0.55;;;;;;;;;;5051537;28;20064;-37
2023/08/12 10:26:09;;;;;;;2.67;0.63;;;;;;;;;;5051261;28;20064;-37
2023/08/12 10:28:39;;;;;;;2.03;0.38;;;;;;;;;;5050303;28;20032;-37
2023/08/12 10:31:06;;;;;;;1.48;0.30;;;;;;;;;;5051518;28;20024;-37
2023/08/12 10:33:40;;;;;;;1.80;0.60;;;;;;;;;;5051522;28;20047;-37
2023/08/12 10:36:07;;;;;;;0.73;0.47;;;;;;;;;;5051555;28;20029;-37
2023/08/12 10:38:34;;;;;;;0.68;0.40;;;;;;;;;;5051474;28;20037;-37
2023/08/12 10:41:20;;;;;;;1.33;0.50;;;;;;;;;;5051537;28;20056;-37
2023/08/12 10:43:54;;;;;;;1.73;0.40;;;;;;;;;;5051529;28;20040;-37
2023/08/12 10:46:29;;;;;;;3.00;0.40;;;;;;;;;;5051346;28;20025;-37
2023/08/12 10:48:59;;;;;;;1.27;0.40;;;;;;;;;;5050073;28;20033;-36
2023/08/12 10:51:42;;;;;;;1.05;0.40;;;;;;;;;;5041760;28;20134;-37
2023/08/12 10:54:16;;;;;;;2.95;0.50;;;;;;;;;;5041715;28;20037;-37
2023/08/12 10:57:01;;;;;;;5.63;0.50;;;;;;;;;;5040974;28;20029;-37
2023/08/12 10:59:46;;;;;;;1.60;0.40;;;;;;;;;;5040344;28;20120;-37
2023/08/12 11:02:27;;;;;;;1.48;0.60;;;;;;;;;;5039696;28;20028;-36
2023/08/12 11:04:58;;;;;;;3.63;0.40;;;;;;;;;;5039839;28;20021;-36
2023/08/12 11:07:42;;;;;;;1.10;0.40;;;;;;;;;;5039703;28;20025;-37
2023/08/12 11:10:35;;;;;;;2.33;0.43;;;;;;;;;;5042244;28;20025;-37
2023/08/12 11:13:02;;;;;;;;;;;;;;;;;;5044162;28;20053;-37
2023/08/12 11:15:38;;;;;;;2.97;0.50;;;;;;;;;;5043166;28;19905;-37
2023/08/12 11:18:06;;;;;;;3.28;0.70;;;;;;;;;;5043700;28;20042;-36
2023/08/12 11:20:34;;;;;;;1.85;0.50;;;;;;;;;;5048139;28;20479;-37
2023/08/12 11:23:01;;;;;;;4.22;0.60;;;;;;;;;;5063182;28;20052;-37
2023/08/12 11:25:31;;;;;;;3.13;0.50;;;;;;;;;;5064424;28;20049;-36
2023/08/12 11:27:58;;;;;;;3.30;0.50;;;;;;;;;;5068148;28;20082;-37
2023/08/12 11:30:26;;;;;;;2.83;0.50;;;;;;;;;;5074834;28;20021;-37
2023/08/12 11:32:54;;;;;;;2.75;0.60;;;;;;;;;;5074137;28;20044;-37
2023/08/12 11:35:23;;;;;;;2.95;0.77;;;;;;;;;;5074794;28;20024;-37
2023/08/12 11:37:55;;;;;;;2.75;0.65;;;;;;;;;;5074625;28;20394;-37
2023/08/12 11:40:22;;;;;;;2.75;0.52;;;;;;;;;;5074518;28;20033;-37
2023/08/12 11:42:50;;;;;;;3.35;0.70;;;;;;;;;;5074611;28;20039;-37
2023/08/12 11:45:21;;;;;;;3.75;0.70;;;;;;;;;;5074460;28;20052;-37
2023/08/12 11:47:52;;;;;;;4.97;0.60;;;;;;;;;;5074547;28;20100;-37
2023/08/12 11:50:20;;;;;;;3.05;0.50;;;;;;;;;;5074727;28;20425;-37
2023/08/12 11:52:47;;;;;;;1.70;0.70;;;;;;;;;;5074305;28;20029;-37
2023/08/12 11:55:14;;;;;;;4.22;0.60;;;;;;;;;;5061255;28;20021;-36
2023/08/12 11:57:42;;;;;;;2.53;0.63;;;;;;;;;;5054353;28;20100;-37
2023/08/12 12:00:18;;;;;;;4.90;0.70;;;;;;;;;;5054247;28;20074;-37
2023/08/12 12:02:55;;;;;;;3.25;0.60;;;;;;;;;;5052072;28;20060;-37
2023/08/12 12:05:27;;;;;;;3.05;0.60;;;;;;;;;;5051394;28;20087;-36
2023/08/12 12:07:55;;;;;;;4.75;0.55;;;;;;;;;;5052097;28;20067;-37
2023/08/12 12:10:27;;;;;;;4.32;0.60;;;;;;;;;;5036230;28;20029;-37
2023/08/12 12:12:55;;;;;;;2.70;0.88;;;;;;;;;;5052411;28;20040;-37
2023/08/12 12:15:22;;;;;;;4.30;0.85;;;;;;;;;;5052628;28;20037;-36
2023/08/12 12:17:53;;;;;;;8.00;0.63;;;;;;;;;;5052851;28;20021;-37
2023/08/12 12:20:21;;;;;;;7.68;0.90;;;;;;;;;;5051373;28;20372;-37
2023/08/12 12:22:48;;;;;;;1.60;0.60;;;;;;;;;;5043427;28;20108;-37
2023/08/12 12:25:18;;;;;;;8.48;0.93;;;;;;;;;;5042220;28;20056;-36
2023/08/12 12:27:46;;;;;;;4.40;0.90;;;;;;;;;;5042509;28;20076;-36
2023/08/12 12:30:14;;;;;;;8.00;1.08;;;;;;;;;;5044048;28;20020;-36
2023/08/12 12:32:41;;;;;;;2.72;0.60;;;;;;;;;;5043078;28;20087;-36
2023/08/12 12:35:08;;;;;;;4.70;0.80;;;;;;;;;;5042036;28;20047;-36
2023/08/12 12:37:36;;;;;;;6.28;1.00;;;;;;;;;;5042159;28;20021;-36
2023/08/12 12:40:03;;;;;;;9.10;0.90;;;;;;;;;;5042671;28;20132;-37
2023/08/12 12:42:30;;;;;;;5.72;0.80;;;;;;;;;;5043882;28;20029;-37
2023/08/12 12:44:57;;;;;;;5.35;0.90;;;;;;;;;;5042365;28;20030;-37
2023/08/12 12:47:25;;;;;;;7.57;1.52;;;;;;;;;;5042290;28;20112;-36
2023/08/12 12:49:52;;;;;;;11.10;1.40;;;;;;;;;;5043718;28;20460;-36
2023/08/12 12:52:19;;;;;;;6.43;1.33;;;;;;;;;;5033338;28;20442;-36
2023/08/12 12:54:46;;;;;;;2.75;0.70;;;;;;;;;;5031963;28;20025;-36
2023/08/12 12:57:13;;;;;;;4.45;0.82;;;;;;;;;;5033204;28;20099;-36
2023/08/12 12:59:40;;;;;;;3.97;0.95;;;;;;;;;;5033263;28;20053;-36
2023/08/12 13:02:07;;;;;;;12.05;1.55;;;;;;;;;;5033254;28;20025;-37
2023/08/12 13:04:34;;;;;;;5.30;1.13;;;;;;;;;;5033119;28;20049;-36
2023/08/12 13:07:01;;;;;;;5.63;1.00;;;;;;;;;;5033011;28;20034;-36
2023/08/12 13:09:28;;;;;;;6.78;1.20;;;;;;;;;;5033250;28;20044;-36
2023/08/12 13:11:56;;;;;;;5.90;1.00;;;;;;;;;;5032859;28;20041;-37
2023/08/12 13:14:24;;;;;;;6.30;1.27;;;;;;;;;;5033033;28;20022;-36
2023/08/12 13:16:51;;;;;;;8.32;0.90;;;;;;;;;;5032775;28;20034;-36
2023/08/12 13:19:18;;;;;;;6.22;1.00;;;;;;;;;;5040421;28;20037;-37
2023/08/12 13:21:45;;;;;;;5.68;0.93;;;;;;;;;;5042751;28;20035;-36
2023/08/12 13:24:12;;;;;;;8.48;1.13;;;;;;;;;;5042264;28;20025;-36
2023/08/12 13:26:39;;;;;;;6.43;1.30;;;;;;;;;;5035426;28;20068;-37
2023/08/12 13:29:06;;;;;;;8.90;0.95;;;;;;;;;;5045469;28;20116;-36
2023/08/12 13:31:33;;;;;;;6.88;1.13;;;;;;;;;;5040818;28;20432;-36
2023/08/12 13:34:00;;;;;;;4.20;1.00;;;;;;;;;;5036570;28;20033;-36
2023/08/12 13:36:27;;;;;;;7.00;1.00;;;;;;;;;;5029003;28;20812;-36
2023/08/12 13:38:54;;;;;;;4.80;1.33;;;;;;;;;;5036286;28;20045;-36
2023/08/12 13:41:21;;;;;;;7.10;1.00;;;;;;;;;;5045052;28;20040;-36
2023/08/12 13:43:48;;;;;;;5.28;1.13;;;;;;;;;;5051050;28;20031;-36
2023/08/12 13:46:15;;;;;;;9.18;1.17;;;;;;;;;;5051659;28;20035;-36
2023/08/12 13:48:42;;;;;;;4.32;1.10;;;;;;;;;;5050373;28;20035;-37
2023/08/12 13:51:10;;;;;;;8.60;1.33;;;;;;;;;;5050988;28;20063;-35
2023/08/12 13:53:37;;;;;;;10.85;1.15;;;;;;;;;;5048496;28;20700;-36
2023/08/12 13:56:04;;;;;;;10.70;1.77;;;;;;;;;;5050759;28;20028;-36
2023/08/12 13:58:31;;;;;;;9.98;1.25;;;;;;;;;;5050393;28;20483;-36
2023/08/12 14:00:58;;;;;;;7.75;1.50;;;;;;;;;;5051766;28;20087;-36
2023/08/12 14:03:25;;;;;;;10.52;1.90;;;;;;;;;;5048780;28;20123;-37
2023/08/12 14:05:52;;;;;;;10.43;1.88;;;;;;;;;;5050078;28;20036;-36
2023/08/12 14:08:19;;;;;;;11.73;1.70;;;;;;;;;;5050896;28;20032;-36
2023/08/12 14:10:50;;;;;;;7.28;1.75;;;;;;;;;;5049600;28;20505;-36
2023/08/12 14:13:17;;;;;;;16.92;2.10;;;;;;;;;;5050686;28;20043;-36
2023/08/12 14:15:44;;;;;;;11.45;2.20;;;;;;;;;;5050948;28;20051;-37
2023/08/12 14:18:11;;;;;;;13.40;1.75;;;;;;;;;;5049798;28;20372;-37
2023/08/12 14:20:38;;;;;;;9.82;1.90;;;;;;;;;;5051169;28;20024;-37
2023/08/12 14:23:05;;;;;;;22.13;2.13;;;;;;;;;;5051237;28;20057;-37
2023/08/12 14:25:32;;;;;;;12.82;1.70;;;;;;;;;;5050715;28;20145;-38
2023/08/12 14:27:59;;;;;;;8.57;1.40;;;;;;;;;;5051760;28;20029;-37
2023/08/12 14:30:27;;;;;;;7.88;1.55;;;;;;;;;;5049547;28;20051;-36
2023/08/12 14:32:54;;;;;;;11.32;1.55;;;;;;;;;;5051492;28;20039;-36
2023/08/12 14:35:21;;;;;;;18.85;1.95;;;;;;;;;;5051198;28;20497;-37
2023/08/12 14:37:48;;;;;;;16.90;1.90;;;;;;;;;;5051385;28;20495;-36
2023/08/12 14:40:15;;;;;;;7.40;1.80;;;;;;;;;;5051160;28;20028;-37
2023/08/12 14:42:42;;;;;;;14.00;1.80;;;;;;;;;;5050947;28;20031;-37